createdAt,value
2018-11-07T00:02:05.133Z,168.23
2018-11-07T00:04:33.302Z,216.97
2018-11-07T00:07:01.389Z,179.13
2018-11-07T00:09:29.537Z,282.70
2018-11-07T00:11:57.754Z,155.70
2018-11-07T00:14:25.926Z,53.00
2018-11-07T00:16:54.102Z,21.03
2018-11-07T00:19:22.281Z,31.27
2018-11-07T00:21:55.755Z,22.87
2018-11-07T00:24:23.912Z,20.47
2018-11-07T00:26:52.114Z,27.80
2018-11-07T00:29:20.432Z,20.20
2018-11-07T00:31:54.131Z,27.77
2018-11-07T00:34:22.428Z,18.63
2018-11-07T00:36:50.580Z,19.20
2018-11-07T00:39:18.865Z,22.37
2018-11-07T00:41:47.023Z,29.60
2018-11-07T00:44:15.160Z,21.97
2018-11-07T00:46:43.957Z,21.97
2018-11-07T00:49:12.217Z,20.77
2018-11-07T00:51:40.352Z,21.70
2018-11-07T00:54:08.458Z,20.73
2018-11-07T00:56:36.639Z,23.30
2018-11-07T00:59:04.855Z,24.67
2018-11-07T01:01:33.215Z,32.10
2018-11-07T01:04:01.516Z,32.10
2018-11-07T01:06:29.737Z,31.43
2018-11-07T01:08:57.877Z,30.70
2018-11-07T01:11:26.051Z,24.93
2018-11-07T01:13:54.173Z,22.63
2018-11-07T01:16:23.206Z,25.60
2018-11-07T01:18:51.421Z,27.47
2018-11-07T01:21:19.577Z,21.43
2018-11-07T01:23:47.763Z,18.07
2018-11-07T01:26:16.004Z,19.17
2018-11-07T01:28:44.257Z,21.90
2018-11-07T01:31:14.719Z,18.20
2018-11-07T01:33:43.123Z,17.77
2018-11-07T01:36:11.250Z,17.27
2018-11-07T01:38:39.498Z,18.37
2018-11-07T01:41:07.767Z,23.87
2018-11-07T01:43:35.924Z,42.13
2018-11-07T01:46:04.130Z,59.33
2018-11-07T01:48:32.322Z,82.67
2018-11-07T01:51:00.482Z,46.83
2018-11-07T01:53:28.538Z,139.60
2018-11-07T01:55:56.798Z,96.63
2018-11-07T01:58:24.997Z,51.67
2018-11-07T02:00:53.159Z,76.37
2018-11-07T02:03:21.327Z,30.37
2018-11-07T02:05:49.504Z,23.83
2018-11-07T02:08:17.631Z,22.33
2018-11-07T02:10:45.803Z,21.90
2018-11-07T02:13:13.937Z,21.00
2018-11-07T02:15:42.191Z,20.10
2018-11-07T02:18:10.743Z,18.90
2018-11-07T02:20:38.892Z,17.83
2018-11-07T02:23:12.179Z,37.23
2018-11-07T02:25:40.313Z,24.10
2018-11-07T02:28:08.502Z,25.37
2018-11-07T02:30:36.612Z,21.63
2018-11-07T02:33:04.906Z,35.33
2018-11-07T02:35:33.133Z,93.93
2018-11-07T02:38:01.954Z,35.37
2018-11-07T02:40:30.199Z,37.77
2018-11-07T02:42:58.620Z,132.40
2018-11-07T02:45:26.933Z,51.23
2018-11-07T02:47:55.112Z,47.10
2018-11-07T02:50:23.280Z,57.30
2018-11-07T02:53:21.147Z,85.83
2018-11-07T02:55:49.223Z,191.93
2018-11-07T02:58:17.355Z,206.63
2018-11-07T03:00:45.417Z,162.73
2018-11-07T03:03:18.806Z,206.27
2018-11-07T03:05:47.001Z,420.70
2018-11-07T03:08:15.259Z,194.67
2018-11-07T03:10:43.476Z,201.93
2018-11-07T03:13:11.724Z,262.03
2018-11-07T03:15:39.863Z,520.50
2018-11-07T03:18:08.013Z,570.57
2018-11-07T03:20:36.161Z,379.87
2018-11-07T03:23:04.463Z,244.13
2018-11-07T03:25:32.908Z,337.37
2018-11-07T03:28:01.074Z,442.63
2018-11-07T03:30:29.211Z,359.37
2018-11-07T03:32:58.129Z,764.23
2018-11-07T03:35:27.247Z,326.57
2018-11-07T03:37:56.327Z,435.20
2018-11-07T03:40:25.170Z,492.77
2018-11-07T03:42:53.523Z,140.17
2018-11-07T03:45:26.265Z,237.40
2018-11-07T03:47:55.537Z,364.47
2018-11-07T03:50:23.786Z,360.30
2018-11-07T03:52:51.994Z,365.13
2018-11-07T03:55:20.220Z,374.60
2018-11-07T03:57:48.371Z,519.60
2018-11-07T04:00:16.535Z,143.27
2018-11-07T04:02:44.862Z,214.67
2018-11-07T04:05:13.094Z,551.77
2018-11-07T04:07:42.088Z,165.67
2018-11-07T04:10:13.437Z,138.20
2018-11-07T04:12:41.701Z,334.73
2018-11-07T04:15:09.926Z,387.93
2018-11-07T04:17:38.212Z,368.60
2018-11-07T04:20:07.550Z,270.93
2018-11-07T04:22:40.804Z,353.00
2018-11-07T04:25:09.358Z,587.37
2018-11-07T04:27:37.637Z,174.27
2018-11-07T04:30:08.724Z,614.43
2018-11-07T04:32:37.034Z,291.00
2018-11-07T04:35:11.878Z,487.87
2018-11-07T04:37:40.660Z,511.40
2018-11-07T04:40:10.850Z,306.40
2018-11-07T04:42:39.181Z,316.97
2018-11-07T04:45:07.570Z,104.63
2018-11-07T04:47:37.225Z,657.97
2018-11-07T04:50:08.767Z,318.50
2018-11-07T04:52:36.933Z,360.80
2018-11-07T04:55:05.959Z,359.53
2018-11-07T04:57:36.644Z,438.93
2018-11-07T05:00:08.223Z,714.73
2018-11-07T05:02:36.320Z,299.37
2018-11-07T05:05:04.916Z,333.53
2018-11-07T05:07:33.601Z,488.50
2018-11-07T05:10:01.776Z,436.80
2018-11-07T05:12:29.936Z,298.03
2018-11-07T05:14:58.060Z,210.57
2018-11-07T05:17:26.191Z,299.00
2018-11-07T05:19:54.362Z,257.50
2018-11-07T05:22:22.581Z,290.17
2018-11-07T05:24:50.708Z,119.00
2018-11-07T05:27:18.867Z,120.17
2018-11-07T05:29:47.019Z,207.23
2018-11-07T05:32:15.133Z,348.50
2018-11-07T05:34:43.298Z,254.27
2018-11-07T05:37:11.456Z,64.77
2018-11-07T05:39:39.649Z,84.00
2018-11-07T05:42:07.831Z,87.30
2018-11-07T05:44:35.984Z,163.57
2018-11-07T05:47:04.329Z,103.70
2018-11-07T05:49:32.468Z,157.77
2018-11-07T05:52:00.720Z,201.57
2018-11-07T05:54:28.906Z,419.83
2018-11-07T05:56:57.143Z,323.23
2018-11-07T05:59:25.340Z,184.63
2018-11-07T06:02:12.519Z,262.07
2018-11-07T06:04:40.708Z,247.53
2018-11-07T06:07:08.809Z,147.50
2018-11-07T06:09:38.115Z,220.67
2018-11-07T06:12:06.285Z,240.83
2018-11-07T06:14:34.461Z,105.60
2018-11-07T06:17:02.690Z,159.87
2018-11-07T06:19:30.871Z,293.37
2018-11-07T06:21:59.031Z,201.47
2018-11-07T06:24:27.266Z,227.77
2018-11-07T06:26:55.444Z,161.27
2018-11-07T06:29:24.697Z,197.20
2018-11-07T06:31:54.234Z,69.87
2018-11-07T06:34:22.408Z,312.40
2018-11-07T06:36:50.569Z,238.97
2018-11-07T06:39:18.756Z,194.23
2018-11-07T06:41:46.916Z,98.27
2018-11-07T06:44:15.819Z,106.67
2018-11-07T06:46:44.048Z,144.03
2018-11-07T06:49:12.690Z,84.77
2018-11-07T06:51:40.873Z,85.60
2018-11-07T06:54:09.028Z,103.30
2018-11-07T06:56:37.520Z,135.60
2018-11-07T06:59:06.116Z,180.70
2018-11-07T07:01:34.260Z,112.33
2018-11-07T07:04:02.464Z,125.17
2018-11-07T07:06:30.600Z,96.40
2018-11-07T07:08:58.729Z,188.30
2018-11-07T07:11:26.950Z,152.40
2018-11-07T07:13:55.907Z,103.73
2018-11-07T07:16:24.129Z,100.87
2018-11-07T07:18:52.267Z,84.13
2018-11-07T07:21:20.489Z,123.20
2018-11-07T07:23:48.592Z,128.23
2018-11-07T07:26:16.780Z,118.33
2018-11-07T07:28:44.907Z,159.97
2018-11-07T07:31:13.237Z,120.83
2018-11-07T07:33:41.927Z,80.43
2018-11-07T07:36:10.010Z,119.07
2018-11-07T07:38:38.100Z,114.13
2018-11-07T07:41:06.268Z,111.47
2018-11-07T07:43:39.421Z,79.53
2018-11-07T07:46:07.532Z,176.63
2018-11-07T07:48:35.726Z,118.77
2018-11-07T07:51:04.434Z,117.13
2018-11-07T07:53:32.581Z,153.07
2018-11-07T07:56:00.789Z,166.97
2018-11-07T07:58:28.909Z,148.83
2018-11-07T08:00:57.108Z,120.90
2018-11-07T08:03:25.285Z,65.50
2018-11-07T08:05:53.469Z,156.53
2018-11-07T08:08:21.633Z,166.23
2018-11-07T08:10:49.736Z,167.57
2018-11-07T08:13:18.278Z,164.80
2018-11-07T08:15:46.451Z,83.33
2018-11-07T08:18:14.581Z,225.93
2018-11-07T08:20:42.694Z,115.37
2018-11-07T08:23:10.993Z,121.97
2018-11-07T08:25:39.217Z,171.03
2018-11-07T08:28:07.975Z,176.33
2018-11-07T08:30:37.577Z,205.60
2018-11-07T08:33:10.803Z,147.23
2018-11-07T08:35:39.000Z,339.50
2018-11-07T08:38:07.243Z,112.63
2018-11-07T08:40:35.404Z,147.07
2018-11-07T08:43:03.928Z,77.23
2018-11-07T08:45:32.048Z,131.67
2018-11-07T08:48:00.189Z,84.07
2018-11-07T08:50:28.351Z,75.10
2018-11-07T08:53:10.374Z,113.93
2018-11-07T08:55:38.526Z,99.80
2018-11-07T08:58:06.674Z,90.80
2018-11-07T09:00:34.794Z,26.10
2018-11-07T09:03:02.947Z,57.83
2018-11-07T09:05:31.096Z,133.13
2018-11-07T09:07:59.292Z,69.07
2018-11-07T09:10:27.445Z,48.90
2018-11-07T09:12:55.685Z,71.97
2018-11-07T09:15:23.903Z,83.40
2018-11-07T09:17:52.102Z,17.40
2018-11-07T09:20:21.613Z,32.33
2018-11-07T09:22:50.111Z,36.93
2018-11-07T09:25:19.414Z,35.80
2018-11-07T09:27:48.582Z,25.73
2018-11-07T09:30:20.003Z,27.80
2018-11-07T09:32:48.232Z,29.50
2018-11-07T09:35:16.474Z,23.33
2018-11-07T09:37:44.694Z,21.43
2018-11-07T09:40:17.488Z,21.40
2018-11-07T09:42:46.337Z,14.73
2018-11-07T09:45:16.159Z,13.70
2018-11-07T09:47:45.065Z,16.37
2018-11-07T09:50:14.117Z,16.33
2018-11-07T09:52:42.531Z,12.80
2018-11-07T09:55:12.730Z,12.20
2018-11-07T09:57:41.146Z,13.83
2018-11-07T10:00:12.685Z,14.40
2018-11-07T10:02:41.068Z,14.53
2018-11-07T10:05:11.775Z,13.17
2018-11-07T10:07:40.479Z,11.87
2018-11-07T10:10:11.946Z,15.73
2018-11-07T10:12:40.535Z,14.10
2018-11-07T10:15:11.209Z,14.10
2018-11-07T10:17:39.414Z,14.23
2018-11-07T10:20:11.617Z,12.17
2018-11-07T10:22:46.709Z,17.37
2018-11-07T10:25:15.053Z,12.00
2018-11-07T10:27:43.505Z,11.53
2018-11-07T10:30:13.900Z,13.80
2018-11-07T10:33:00.800Z,12.70
2018-11-07T10:35:28.913Z,12.40
2018-11-07T10:37:57.107Z,14.70
2018-11-07T10:40:25.193Z,13.80
2018-11-07T10:42:53.349Z,12.47
2018-11-07T10:45:21.516Z,14.37
2018-11-07T10:47:50.141Z,13.50
2018-11-07T10:50:19.356Z,13.97
2018-11-07T10:52:48.354Z,13.27
2018-11-07T10:55:16.937Z,12.57
2018-11-07T10:57:45.462Z,15.53
2018-11-07T11:00:20.528Z,11.87
2018-11-07T11:03:08.723Z,11.60
2018-11-07T11:05:37.895Z,15.60
2018-11-07T11:08:06.293Z,14.97
2018-11-07T11:10:34.387Z,15.63
2018-11-07T11:13:02.586Z,14.03
2018-11-07T11:15:30.709Z,16.13
2018-11-07T11:17:58.901Z,13.73
2018-11-07T11:20:26.993Z,16.53
2018-11-07T11:22:55.169Z,13.67
2018-11-07T11:25:23.332Z,15.43
2018-11-07T11:27:51.538Z,18.10
2018-11-07T11:30:19.770Z,15.97
2018-11-07T11:32:48.003Z,17.53
2018-11-07T11:35:16.267Z,15.67
2018-11-07T11:37:44.376Z,18.30
2018-11-07T11:40:13.673Z,22.20
2018-11-07T11:42:42.755Z,20.17
2018-11-07T11:45:13.213Z,17.30
2018-11-07T11:47:43.030Z,21.17
2018-11-07T11:50:13.738Z,18.23
2018-11-07T11:52:43.059Z,19.77
2018-11-07T11:55:11.337Z,18.73
2018-11-07T11:57:40.102Z,16.03
2018-11-07T12:00:12.627Z,20.13
2018-11-07T12:02:40.651Z,16.83
2018-11-07T12:05:10.405Z,14.80
2018-11-07T12:07:38.982Z,14.73
2018-11-07T12:10:14.845Z,16.20
2018-11-07T12:12:50.261Z,15.70
2018-11-07T12:15:19.420Z,17.17
2018-11-07T12:17:47.662Z,17.00
2018-11-07T12:20:15.909Z,15.10
2018-11-07T12:22:49.520Z,15.93
2018-11-07T12:25:18.395Z,16.80
2018-11-07T12:27:46.626Z,16.70
2018-11-07T12:30:16.907Z,14.20
2018-11-07T12:32:46.509Z,14.80
2018-11-07T12:35:15.315Z,14.47
2018-11-07T12:37:43.471Z,14.30
2018-11-07T12:40:12.283Z,15.77
2018-11-07T12:42:45.757Z,19.13
2018-11-07T12:45:14.879Z,16.57
2018-11-07T12:47:43.024Z,15.63
2018-11-07T12:50:14.123Z,14.70
2018-11-07T12:52:42.843Z,14.57
2018-11-07T12:55:11.755Z,15.17
2018-11-07T12:57:39.932Z,13.60
2018-11-07T13:00:12.814Z,18.00
2018-11-07T13:02:41.101Z,15.07
2018-11-07T13:05:10.806Z,12.97
2018-11-07T13:07:39.305Z,13.20
2018-11-07T13:10:11.121Z,13.50
2018-11-07T13:12:39.825Z,17.50
2018-11-07T13:15:09.365Z,16.03
2018-11-07T13:17:37.552Z,15.47
2018-11-07T13:20:14.326Z,15.03
2018-11-07T13:22:43.707Z,15.30
2018-11-07T13:25:12.433Z,14.60
2018-11-07T13:27:40.686Z,13.90
2018-11-07T13:30:12.133Z,15.00
2018-11-07T13:32:45.474Z,14.67
2018-11-07T13:35:14.507Z,13.63
2018-11-07T13:37:43.823Z,14.73
2018-11-07T13:40:17.889Z,17.90
2018-11-07T13:42:46.942Z,14.80
2018-11-07T13:45:16.373Z,15.60
2018-11-07T13:47:45.600Z,15.57
2018-11-07T13:50:14.362Z,15.07
2018-11-07T13:52:42.546Z,16.00
2018-11-07T13:55:11.748Z,16.13
2018-11-07T13:57:40.390Z,15.73
2018-11-07T14:00:12.536Z,18.00
2018-11-07T14:02:40.693Z,15.00
2018-11-07T14:05:09.964Z,15.00
2018-11-07T14:07:38.287Z,16.83
2018-11-07T14:10:09.457Z,17.03
2018-11-07T14:12:37.745Z,17.17
2018-11-07T14:15:09.025Z,16.67
2018-11-07T14:17:37.355Z,17.67
2018-11-07T14:20:06.400Z,17.97
2018-11-07T14:22:34.710Z,17.23
2018-11-07T14:25:03.100Z,18.90
2018-11-07T14:27:31.408Z,18.80
2018-11-07T14:29:59.572Z,17.20
2018-11-07T14:32:29.169Z,18.87
2018-11-07T14:34:57.346Z,18.77
2018-11-07T14:37:25.604Z,18.80
2018-11-07T14:39:53.788Z,21.40
2018-11-07T14:42:22.096Z,20.03
2018-11-07T14:44:50.283Z,18.60
2018-11-07T14:47:18.677Z,18.90
2018-11-07T14:49:47.109Z,20.07
2018-11-07T14:52:15.318Z,20.67
2018-11-07T14:54:43.627Z,23.43
2018-11-07T14:57:11.882Z,19.17
2018-11-07T14:59:40.119Z,23.67
2018-11-07T15:02:08.534Z,21.47
2018-11-07T15:04:36.750Z,24.00
2018-11-07T15:07:05.299Z,22.07
2018-11-07T15:09:33.383Z,22.90
2018-11-07T15:12:06.979Z,23.70
2018-11-07T15:14:35.156Z,25.30
2018-11-07T15:17:03.423Z,24.33
2018-11-07T15:19:31.623Z,26.17
2018-11-07T15:21:59.855Z,23.00
2018-11-07T15:24:28.038Z,24.97
2018-11-07T15:26:56.163Z,25.10
2018-11-07T15:29:24.328Z,25.67
2018-11-07T15:31:52.855Z,23.80
2018-11-07T15:34:21.036Z,27.27
2018-11-07T15:36:49.582Z,27.13
2018-11-07T15:39:17.866Z,27.33
2018-11-07T15:41:55.181Z,27.83
2018-11-07T15:44:23.458Z,30.03
2018-11-07T15:46:51.655Z,32.13
2018-11-07T15:49:20.104Z,29.73
2018-11-07T15:51:53.715Z,32.53
2018-11-07T15:54:23.229Z,36.17
2018-11-07T15:56:51.409Z,43.63
2018-11-07T15:59:19.619Z,37.20
2018-11-07T16:01:47.890Z,34.50
2018-11-07T16:04:16.212Z,32.77
2018-11-07T16:06:44.469Z,32.60
2018-11-07T16:09:13.597Z,34.83
2018-11-07T16:11:43.372Z,37.20
2018-11-07T16:14:11.595Z,34.47
2018-11-07T16:16:39.799Z,29.67
2018-11-07T16:19:08.707Z,28.00
2018-11-07T16:21:36.960Z,29.63
2018-11-07T16:24:06.134Z,27.00
2018-11-07T16:26:34.207Z,27.40
2018-11-07T16:29:02.576Z,31.47
2018-11-07T16:31:31.484Z,28.00
2018-11-07T16:34:02.606Z,27.80
2018-11-07T16:36:32.931Z,26.10
2018-11-07T16:39:01.960Z,23.67
2018-11-07T16:41:30.380Z,26.70
2018-11-07T16:43:58.492Z,22.50
2018-11-07T16:46:26.787Z,24.10
2018-11-07T16:48:55.514Z,26.10
2018-11-07T16:51:23.696Z,25.07
2018-11-07T16:53:51.968Z,27.87
2018-11-07T16:56:20.306Z,23.57
2018-11-07T16:58:48.574Z,23.83
2018-11-07T17:01:16.837Z,24.73
2018-11-07T17:03:45.046Z,25.47
2018-11-07T17:06:13.315Z,30.03
2018-11-07T17:08:41.559Z,34.83
2018-11-07T17:11:10.104Z,31.77
2018-11-07T17:13:38.273Z,31.63
2018-11-07T17:16:06.535Z,28.60
2018-11-07T17:18:34.820Z,28.87
2018-11-07T17:21:03.005Z,31.07
2018-11-07T17:23:31.185Z,33.43
2018-11-07T17:25:59.393Z,37.87
2018-11-07T17:28:27.537Z,39.37
2018-11-07T17:30:56.338Z,44.10
2018-11-07T17:33:24.453Z,35.70
2018-11-07T17:35:52.666Z,39.23
2018-11-07T17:38:20.811Z,56.63
2018-11-07T17:40:48.983Z,73.30
2018-11-07T17:43:18.036Z,67.83
2018-11-07T17:45:46.279Z,216.77
2018-11-07T17:48:15.443Z,85.63
2018-11-07T17:50:43.599Z,131.17
2018-11-07T17:53:11.780Z,315.60
2018-11-07T17:55:39.948Z,153.13
2018-11-07T17:58:08.062Z,135.53
2018-11-07T18:00:36.279Z,220.00
2018-11-07T18:03:04.557Z,220.17
2018-11-07T18:05:32.739Z,135.80
2018-11-07T18:08:01.196Z,98.43
2018-11-07T18:10:29.389Z,172.67
2018-11-07T18:12:57.502Z,136.97
2018-11-07T18:15:25.705Z,72.93
2018-11-07T18:17:54.236Z,110.30
2018-11-07T18:20:22.386Z,139.93
2018-11-07T18:22:50.713Z,137.30
2018-11-07T18:25:18.885Z,249.93
2018-11-07T18:27:47.058Z,103.67
2018-11-07T18:30:16.356Z,270.50
2018-11-07T18:32:45.427Z,100.30
2018-11-07T18:35:15.710Z,188.80
2018-11-07T18:37:44.734Z,63.77
2018-11-07T18:40:14.142Z,155.73
2018-11-07T18:42:43.241Z,129.20
2018-11-07T18:45:12.312Z,143.50
2018-11-07T18:47:42.070Z,424.40
2018-11-07T18:50:12.075Z,116.23
2018-11-07T18:52:40.687Z,201.53
2018-11-07T18:55:10.910Z,116.60
2018-11-07T18:57:39.269Z,255.83
2018-11-07T19:00:10.802Z,199.40
2018-11-07T19:02:39.541Z,125.77
2018-11-07T19:05:08.158Z,302.80
2018-11-07T19:07:36.859Z,379.50
2018-11-07T19:10:08.632Z,406.50
2018-11-07T19:12:37.717Z,164.70
2018-11-07T19:15:08.569Z,217.30
2018-11-07T19:17:36.793Z,204.33
2018-11-07T19:20:05.673Z,157.77
2018-11-07T19:22:33.909Z,272.27
2018-11-07T19:25:02.148Z,472.70
2018-11-07T19:27:30.418Z,479.70
2018-11-07T19:29:58.761Z,457.77
2018-11-07T19:32:32.300Z,600.00
2018-11-07T19:35:01.537Z,576.30
2018-11-07T19:37:31.412Z,608.03
2018-11-07T19:39:59.549Z,1238.40
2018-11-07T19:42:27.814Z,605.43
2018-11-07T19:44:56.102Z,834.57
2018-11-07T19:47:24.276Z,354.03
2018-11-07T19:49:52.582Z,351.77
2018-11-07T19:52:22.036Z,256.30
2018-11-07T19:54:50.192Z,419.70
2018-11-07T19:57:18.410Z,263.70
2018-11-07T19:59:46.633Z,879.07
2018-11-07T20:02:15.238Z,455.13
2018-11-07T20:04:43.434Z,425.03
2018-11-07T20:07:11.690Z,548.87
2018-11-07T20:09:39.899Z,349.53
2018-11-07T20:12:08.165Z,408.67
2018-11-07T20:14:36.371Z,384.17
2018-11-07T20:17:04.896Z,338.23
2018-11-07T20:19:33.099Z,420.03
2018-11-07T20:22:06.398Z,371.70
2018-11-07T20:24:35.138Z,368.77
2018-11-07T20:27:03.580Z,309.57
2018-11-07T20:29:31.840Z,979.17
2018-11-07T20:31:59.971Z,174.13
2018-11-07T20:34:28.177Z,128.87
2018-11-07T20:36:56.439Z,208.67
2018-11-07T20:39:26.162Z,141.87
2018-11-07T20:41:55.134Z,193.03
2018-11-07T20:44:23.201Z,152.43
2018-11-07T20:46:51.399Z,150.07
2018-11-07T20:49:25.093Z,120.30
2018-11-07T20:51:53.495Z,120.90
2018-11-07T20:54:28.858Z,99.47
2018-11-07T20:56:58.721Z,146.83
2018-11-07T20:59:32.310Z,143.33
2018-11-07T21:02:06.875Z,120.47
2018-11-07T21:04:36.751Z,114.50
2018-11-07T21:07:11.467Z,158.90
2018-11-07T21:09:45.956Z,120.40
2018-11-07T21:12:25.892Z,83.47
2018-11-07T21:14:58.492Z,173.97
2018-11-07T21:17:30.986Z,158.80
2018-11-07T21:20:00.562Z,102.70
2018-11-07T21:22:30.545Z,115.53
2018-11-07T21:25:01.822Z,136.07
2018-11-07T21:27:45.693Z,132.00
2018-11-07T21:30:15.851Z,106.60
2018-11-07T21:32:46.723Z,86.23
2018-11-07T21:35:22.826Z,93.53
2018-11-07T21:37:51.376Z,121.63
2018-11-07T21:40:19.721Z,122.07
2018-11-07T21:42:48.343Z,167.90
2018-11-07T21:45:16.695Z,76.53
2018-11-07T21:47:45.008Z,144.57
2018-11-07T21:50:15.724Z,142.07
2018-11-07T21:52:44.215Z,153.17
2018-11-07T21:55:12.828Z,157.83
2018-11-07T21:57:41.183Z,188.20
2018-11-07T22:00:13.722Z,108.37
2018-11-07T22:02:42.850Z,95.43
2018-11-07T22:05:12.025Z,101.67
2018-11-07T22:07:40.494Z,141.40
2018-11-07T22:10:09.914Z,55.47
2018-11-07T22:12:38.443Z,51.30
2018-11-07T22:15:07.532Z,82.07
2018-11-07T22:17:35.950Z,73.43
2018-11-07T22:20:08.331Z,87.97
2018-11-07T22:22:41.961Z,73.97
2018-11-07T22:25:10.099Z,61.47
2018-11-07T22:27:39.681Z,71.47
2018-11-07T22:30:11.241Z,88.90
2018-11-07T22:32:39.532Z,69.03
2018-11-07T22:35:09.643Z,86.73
2018-11-07T22:37:38.319Z,75.07
2018-11-07T22:40:08.988Z,123.50
2018-11-07T22:42:37.179Z,78.20
2018-11-07T22:45:05.829Z,75.67
2018-11-07T22:47:34.092Z,36.93
2018-11-07T22:50:03.210Z,34.87
2018-11-07T22:52:31.440Z,30.73
2018-11-07T22:55:00.178Z,37.00
2018-11-07T22:57:28.324Z,32.93
2018-11-07T22:59:56.443Z,31.87
2018-11-07T23:02:24.573Z,46.30
2018-11-07T23:04:52.811Z,34.20
2018-11-07T23:07:20.969Z,41.67
2018-11-07T23:09:49.868Z,60.63
2018-11-07T23:12:18.023Z,83.33
2018-11-07T23:14:46.489Z,46.33
2018-11-07T23:17:14.768Z,44.17
2018-11-07T23:19:42.913Z,32.30
2018-11-07T23:22:11.096Z,49.60
2018-11-07T23:24:39.248Z,45.97
2018-11-07T23:27:08.158Z,63.83
2018-11-07T23:29:36.331Z,32.87
2018-11-07T23:32:04.564Z,37.23
2018-11-07T23:34:32.717Z,33.23
2018-11-07T23:37:00.888Z,57.90
2018-11-07T23:39:29.131Z,41.80
2018-11-07T23:42:06.858Z,33.47
2018-11-07T23:44:35.032Z,52.87
2018-11-07T23:47:03.210Z,133.20
2018-11-07T23:49:31.325Z,51.80
2018-11-07T23:51:59.522Z,47.30
2018-11-07T23:54:27.605Z,75.90
2018-11-07T23:56:55.836Z,113.10
2018-11-07T23:59:24.022Z,188.23
